sensor_id;sensor_type;location;lat;lon;timestamp;P1;durP1;ratioP1;P2;durP2;ratioP2
61013;SDS011;46899;47.542;19.082;2024-03-02T00:00:42;39.92;;;26.75;;
61013;SDS011;46899;47.542;19.082;2024-03-02T00:03:55;39.03;;;26.23;;
61013;SDS011;46899;47.542;19.082;2024-03-02T00:07:14;38.50;;;26.67;;
61013;SDS011;46899;47.542;19.082;2024-03-02T00:10:37;39.28;;;25.45;;
61013;SDS011;46899;47.542;19.082;2024-03-02T00:14:04;36.47;;;25.67;;
61013;SDS011;46899;47.542;19.082;2024-03-02T00:17:26;34.35;;;25.58;;
61013;SDS011;46899;47.542;19.082;2024-03-02T00:20:41;35.25;;;25.08;;
61013;SDS011;46899;47.542;19.082;2024-03-02T00:23:55;39.60;;;24.12;;
61013;SDS011;46899;47.542;19.082;2024-03-02T00:27:12;37.90;;;24.87;;
61013;SDS011;46899;47.542;19.082;2024-03-02T00:34:16;33.10;;;23.15;;
61013;SDS011;46899;47.542;19.082;2024-03-02T00:37:35;38.65;;;23.80;;
61013;SDS011;46899;47.542;19.082;2024-03-02T00:40:51;34.67;;;24.50;;
61013;SDS011;46899;47.542;19.082;2024-03-02T00:44:14;35.83;;;23.77;;
61013;SDS011;46899;47.542;19.082;2024-03-02T00:47:28;33.47;;;22.67;;
61013;SDS011;46899;47.542;19.082;2024-03-02T00:50:47;35.22;;;22.80;;
61013;SDS011;46899;47.542;19.082;2024-03-02T00:54:08;35.85;;;23.20;;
61013;SDS011;46899;47.542;19.082;2024-03-02T00:57:32;37.92;;;22.95;;
61013;SDS011;46899;47.542;19.082;2024-03-02T01:00:42;35.08;;;22.42;;
61013;SDS011;46899;47.542;19.082;2024-03-02T01:03:56;33.28;;;22.08;;
61013;SDS011;46899;47.542;19.082;2024-03-02T01:07:28;33.53;;;20.77;;
61013;SDS011;46899;47.542;19.082;2024-03-02T01:10:42;38.17;;;22.27;;
61013;SDS011;46899;47.542;19.082;2024-03-02T01:13:58;34.70;;;21.48;;
61013;SDS011;46899;47.542;19.082;2024-03-02T01:17:11;35.22;;;22.23;;
61013;SDS011;46899;47.542;19.082;2024-03-02T01:20:24;36.90;;;21.17;;
61013;SDS011;46899;47.542;19.082;2024-03-02T01:23:39;32.40;;;21.50;;
61013;SDS011;46899;47.542;19.082;2024-03-02T01:26:53;30.55;;;21.35;;
61013;SDS011;46899;47.542;19.082;2024-03-02T01:30:08;33.22;;;21.83;;
61013;SDS011;46899;47.542;19.082;2024-03-02T01:33:26;37.47;;;22.30;;
61013;SDS011;46899;47.542;19.082;2024-03-02T01:36:46;31.10;;;21.08;;
61013;SDS011;46899;47.542;19.082;2024-03-02T01:40:07;33.67;;;22.02;;
61013;SDS011;46899;47.542;19.082;2024-03-02T01:43:24;32.83;;;22.08;;
61013;SDS011;46899;47.542;19.082;2024-03-02T01:46:42;34.17;;;22.17;;
61013;SDS011;46899;47.542;19.082;2024-03-02T01:50:02;29.48;;;21.05;;
61013;SDS011;46899;47.542;19.082;2024-03-02T01:53:14;32.78;;;21.65;;
61013;SDS011;46899;47.542;19.082;2024-03-02T01:56:27;32.90;;;20.88;;
61013;SDS011;46899;47.542;19.082;2024-03-02T01:59:37;34.17;;;21.35;;
61013;SDS011;46899;47.542;19.082;2024-03-02T02:02:50;32.67;;;21.15;;
61013;SDS011;46899;47.542;19.082;2024-03-02T02:05:59;31.75;;;20.67;;
61013;SDS011;46899;47.542;19.082;2024-03-02T02:09:17;33.20;;;21.33;;
61013;SDS011;46899;47.542;19.082;2024-03-02T02:12:25;33.90;;;21.55;;
61013;SDS011;46899;47.542;19.082;2024-03-02T02:15:36;34.95;;;23.58;;
61013;SDS011;46899;47.542;19.082;2024-03-02T02:18:54;31.45;;;21.50;;
61013;SDS011;46899;47.542;19.082;2024-03-02T02:22:10;30.40;;;21.23;;
61013;SDS011;46899;47.542;19.082;2024-03-02T02:25:22;32.47;;;21.40;;
61013;SDS011;46899;47.542;19.082;2024-03-02T02:28:35;31.37;;;21.33;;
61013;SDS011;46899;47.542;19.082;2024-03-02T02:32:00;32.08;;;21.15;;
61013;SDS011;46899;47.542;19.082;2024-03-02T02:35:22;31.27;;;21.77;;
61013;SDS011;46899;47.542;19.082;2024-03-02T02:38:50;35.88;;;21.52;;
61013;SDS011;46899;47.542;19.082;2024-03-02T02:45:28;33.40;;;22.40;;
61013;SDS011;46899;47.542;19.082;2024-03-02T02:48:41;33.63;;;21.92;;
61013;SDS011;46899;47.542;19.082;2024-03-02T02:51:53;32.30;;;20.77;;
61013;SDS011;46899;47.542;19.082;2024-03-02T02:55:10;33.85;;;22.17;;
61013;SDS011;46899;47.542;19.082;2024-03-02T02:58:25;34.75;;;21.70;;
61013;SDS011;46899;47.542;19.082;2024-03-02T03:01:40;32.10;;;22.33;;
61013;SDS011;46899;47.542;19.082;2024-03-02T03:04:56;33.58;;;21.92;;
61013;SDS011;46899;47.542;19.082;2024-03-02T03:08:13;31.73;;;22.80;;
61013;SDS011;46899;47.542;19.082;2024-03-02T03:11:30;37.35;;;23.15;;
61013;SDS011;46899;47.542;19.082;2024-03-02T03:14:43;33.00;;;23.23;;
61013;SDS011;46899;47.542;19.082;2024-03-02T03:17:58;36.25;;;22.65;;
61013;SDS011;46899;47.542;19.082;2024-03-02T03:21:15;31.98;;;20.95;;
61013;SDS011;46899;47.542;19.082;2024-03-02T03:24:28;37.20;;;23.38;;
61013;SDS011;46899;47.542;19.082;2024-03-02T03:27:46;33.38;;;22.33;;
61013;SDS011;46899;47.542;19.082;2024-03-02T03:31:03;35.67;;;22.10;;
61013;SDS011;46899;47.542;19.082;2024-03-02T03:34:22;33.78;;;21.92;;
61013;SDS011;46899;47.542;19.082;2024-03-02T03:37:38;37.03;;;22.48;;
61013;SDS011;46899;47.542;19.082;2024-03-02T03:40:53;34.70;;;23.02;;
61013;SDS011;46899;47.542;19.082;2024-03-02T03:44:10;35.20;;;23.20;;
61013;SDS011;46899;47.542;19.082;2024-03-02T03:47:23;38.90;;;24.17;;
61013;SDS011;46899;47.542;19.082;2024-03-02T03:50:43;33.30;;;23.33;;
61013;SDS011;46899;47.542;19.082;2024-03-02T03:54:01;33.28;;;23.00;;
61013;SDS011;46899;47.542;19.082;2024-03-02T03:57:23;35.75;;;23.08;;
61013;SDS011;46899;47.542;19.082;2024-03-02T04:00:40;33.28;;;22.62;;
61013;SDS011;46899;47.542;19.082;2024-03-02T04:03:51;33.30;;;23.20;;
61013;SDS011;46899;47.542;19.082;2024-03-02T04:07:12;33.22;;;23.05;;
61013;SDS011;46899;47.542;19.082;2024-03-02T04:10:29;33.83;;;23.02;;
61013;SDS011;46899;47.542;19.082;2024-03-02T04:13:41;35.92;;;22.15;;
61013;SDS011;46899;47.542;19.082;2024-03-02T04:16:58;32.63;;;22.02;;
61013;SDS011;46899;47.542;19.082;2024-03-02T04:20:12;33.03;;;20.17;;
61013;SDS011;46899;47.542;19.082;2024-03-02T04:23:31;34.28;;;21.17;;
61013;SDS011;46899;47.542;19.082;2024-03-02T04:26:51;31.70;;;20.58;;
61013;SDS011;46899;47.542;19.082;2024-03-02T04:30:09;33.17;;;20.62;;
61013;SDS011;46899;47.542;19.082;2024-03-02T04:33:26;34.83;;;20.37;;
61013;SDS011;46899;47.542;19.082;2024-03-02T04:39:53;32.75;;;20.00;;
61013;SDS011;46899;47.542;19.082;2024-03-02T04:43:11;33.90;;;21.20;;
61013;SDS011;46899;47.542;19.082;2024-03-02T04:46:26;33.53;;;21.27;;
61013;SDS011;46899;47.542;19.082;2024-03-02T04:52:53;33.08;;;20.48;;
61013;SDS011;46899;47.542;19.082;2024-03-02T04:56:09;35.23;;;21.40;;
61013;SDS011;46899;47.542;19.082;2024-03-02T04:59:43;37.10;;;21.95;;
61013;SDS011;46899;47.542;19.082;2024-03-02T05:03:06;37.75;;;23.08;;
61013;SDS011;46899;47.542;19.082;2024-03-02T05:06:33;35.05;;;21.12;;
61013;SDS011;46899;47.542;19.082;2024-03-02T05:09:51;37.42;;;22.15;;
61013;SDS011;46899;47.542;19.082;2024-03-02T05:13:04;36.35;;;22.87;;
61013;SDS011;46899;47.542;19.082;2024-03-02T05:16:20;36.60;;;23.40;;
61013;SDS011;46899;47.542;19.082;2024-03-02T05:19:35;40.30;;;23.38;;
61013;SDS011;46899;47.542;19.082;2024-03-02T05:22:45;36.47;;;22.48;;
61013;SDS011;46899;47.542;19.082;2024-03-02T05:25:56;42.62;;;23.95;;
61013;SDS011;46899;47.542;19.082;2024-03-02T05:29:12;39.88;;;23.90;;
61013;SDS011;46899;47.542;19.082;2024-03-02T05:32:26;38.38;;;24.05;;
61013;SDS011;46899;47.542;19.082;2024-03-02T05:35:41;39.78;;;24.02;;
61013;SDS011;46899;47.542;19.082;2024-03-02T05:38:53;38.20;;;22.75;;
61013;SDS011;46899;47.542;19.082;2024-03-02T05:42:05;36.78;;;22.25;;
61013;SDS011;46899;47.542;19.082;2024-03-02T05:45:18;38.13;;;23.55;;
61013;SDS011;46899;47.542;19.082;2024-03-02T05:48:30;38.83;;;23.15;;
61013;SDS011;46899;47.542;19.082;2024-03-02T05:51:43;36.13;;;23.67;;
61013;SDS011;46899;47.542;19.082;2024-03-02T05:54:55;39.50;;;23.98;;
61013;SDS011;46899;47.542;19.082;2024-03-02T05:58:09;38.50;;;24.80;;
61013;SDS011;46899;47.542;19.082;2024-03-02T06:02:03;35.58;;;23.30;;
61013;SDS011;46899;47.542;19.082;2024-03-02T06:05:27;38.90;;;24.75;;
61013;SDS011;46899;47.542;19.082;2024-03-02T06:08:41;37.13;;;24.52;;
61013;SDS011;46899;47.542;19.082;2024-03-02T06:11:54;38.35;;;23.55;;
61013;SDS011;46899;47.542;19.082;2024-03-02T06:15:05;37.30;;;24.45;;
61013;SDS011;46899;47.542;19.082;2024-03-02T06:18:20;42.35;;;25.60;;
61013;SDS011;46899;47.542;19.082;2024-03-02T06:21:31;44.22;;;25.08;;
61013;SDS011;46899;47.542;19.082;2024-03-02T06:24:46;39.13;;;24.02;;
61013;SDS011;46899;47.542;19.082;2024-03-02T06:28:03;40.70;;;25.17;;
61013;SDS011;46899;47.542;19.082;2024-03-02T06:31:18;36.25;;;24.05;;
61013;SDS011;46899;47.542;19.082;2024-03-02T06:34:37;39.47;;;24.15;;
61013;SDS011;46899;47.542;19.082;2024-03-02T06:37:55;41.60;;;24.87;;
61013;SDS011;46899;47.542;19.082;2024-03-02T06:41:12;41.42;;;24.30;;
61013;SDS011;46899;47.542;19.082;2024-03-02T06:44:28;39.38;;;23.58;;
61013;SDS011;46899;47.542;19.082;2024-03-02T06:47:48;41.37;;;25.70;;
61013;SDS011;46899;47.542;19.082;2024-03-02T06:51:00;39.00;;;24.33;;
61013;SDS011;46899;47.542;19.082;2024-03-02T06:54:18;39.67;;;24.40;;
61013;SDS011;46899;47.542;19.082;2024-03-02T06:57:34;40.97;;;24.35;;
61013;SDS011;46899;47.542;19.082;2024-03-02T07:00:48;43.60;;;25.20;;
61013;SDS011;46899;47.542;19.082;2024-03-02T07:04:05;37.22;;;24.00;;
61013;SDS011;46899;47.542;19.082;2024-03-02T07:07:23;39.25;;;25.10;;
61013;SDS011;46899;47.542;19.082;2024-03-02T07:10:40;37.45;;;24.55;;
61013;SDS011;46899;47.542;19.082;2024-03-02T07:13:54;36.17;;;23.77;;
61013;SDS011;46899;47.542;19.082;2024-03-02T07:17:13;39.53;;;24.10;;
61013;SDS011;46899;47.542;19.082;2024-03-02T07:20:35;37.92;;;22.87;;
61013;SDS011;46899;47.542;19.082;2024-03-02T07:23:56;40.40;;;23.75;;
61013;SDS011;46899;47.542;19.082;2024-03-02T07:27:17;34.13;;;23.05;;
61013;SDS011;46899;47.542;19.082;2024-03-02T07:30:32;36.10;;;23.02;;
61013;SDS011;46899;47.542;19.082;2024-03-02T07:33:48;36.67;;;23.23;;
61013;SDS011;46899;47.542;19.082;2024-03-02T07:37:06;36.50;;;23.05;;
61013;SDS011;46899;47.542;19.082;2024-03-02T07:40:22;33.35;;;21.67;;
61013;SDS011;46899;47.542;19.082;2024-03-02T07:43:44;35.20;;;22.73;;
61013;SDS011;46899;47.542;19.082;2024-03-02T07:47:08;35.55;;;23.35;;
61013;SDS011;46899;47.542;19.082;2024-03-02T07:50:25;36.28;;;23.20;;
61013;SDS011;46899;47.542;19.082;2024-03-02T07:53:42;35.83;;;22.80;;
61013;SDS011;46899;47.542;19.082;2024-03-02T07:57:03;34.20;;;22.77;;
61013;SDS011;46899;47.542;19.082;2024-03-02T08:00:23;33.83;;;22.37;;
61013;SDS011;46899;47.542;19.082;2024-03-02T08:03:37;33.90;;;22.77;;
61013;SDS011;46899;47.542;19.082;2024-03-02T08:06:52;37.17;;;23.48;;
61013;SDS011;46899;47.542;19.082;2024-03-02T08:10:07;35.53;;;23.23;;
61013;SDS011;46899;47.542;19.082;2024-03-02T08:13:21;37.53;;;22.92;;
61013;SDS011;46899;47.542;19.082;2024-03-02T08:16:37;35.55;;;23.62;;
61013;SDS011;46899;47.542;19.082;2024-03-02T08:19:49;34.60;;;21.85;;
61013;SDS011;46899;47.542;19.082;2024-03-02T08:23:04;35.22;;;22.25;;
61013;SDS011;46899;47.542;19.082;2024-03-02T08:26:17;41.08;;;24.05;;
61013;SDS011;46899;47.542;19.082;2024-03-02T08:29:32;36.40;;;24.17;;
61013;SDS011;46899;47.542;19.082;2024-03-02T08:32:43;36.65;;;23.42;;
61013;SDS011;46899;47.542;19.082;2024-03-02T08:35:56;36.95;;;23.83;;
61013;SDS011;46899;47.542;19.082;2024-03-02T08:39:12;36.95;;;23.50;;
61013;SDS011;46899;47.542;19.082;2024-03-02T08:42:27;39.47;;;23.70;;
61013;SDS011;46899;47.542;19.082;2024-03-02T08:45:44;33.13;;;22.05;;
61013;SDS011;46899;47.542;19.082;2024-03-02T08:49:03;33.53;;;22.13;;
61013;SDS011;46899;47.542;19.082;2024-03-02T08:52:22;34.90;;;22.75;;
61013;SDS011;46899;47.542;19.082;2024-03-02T08:55:35;33.80;;;22.40;;
61013;SDS011;46899;47.542;19.082;2024-03-02T08:58:48;33.17;;;22.37;;
61013;SDS011;46899;47.542;19.082;2024-03-02T09:02:03;37.15;;;22.73;;
61013;SDS011;46899;47.542;19.082;2024-03-02T09:05:21;32.33;;;21.48;;
61013;SDS011;46899;47.542;19.082;2024-03-02T09:08:33;31.00;;;21.20;;
61013;SDS011;46899;47.542;19.082;2024-03-02T09:11:48;31.60;;;21.40;;
61013;SDS011;46899;47.542;19.082;2024-03-02T09:15:09;30.58;;;21.40;;
61013;SDS011;46899;47.542;19.082;2024-03-02T09:18:32;30.88;;;21.02;;
61013;SDS011;46899;47.542;19.082;2024-03-02T09:21:53;29.48;;;20.55;;
61013;SDS011;46899;47.542;19.082;2024-03-02T09:25:13;32.67;;;19.75;;
61013;SDS011;46899;47.542;19.082;2024-03-02T09:28:25;30.65;;;20.25;;
61013;SDS011;46899;47.542;19.082;2024-03-02T09:31:41;28.85;;;19.30;;
61013;SDS011;46899;47.542;19.082;2024-03-02T09:38:12;29.00;;;19.02;;
61013;SDS011;46899;47.542;19.082;2024-03-02T09:41:30;31.85;;;20.35;;
61013;SDS011;46899;47.542;19.082;2024-03-02T09:44:46;26.87;;;18.52;;
61013;SDS011;46899;47.542;19.082;2024-03-02T09:47:59;28.23;;;18.10;;
61013;SDS011;46899;47.542;19.082;2024-03-02T09:51:12;26.67;;;18.27;;
61013;SDS011;46899;47.542;19.082;2024-03-02T09:54:23;22.50;;;16.62;;
61013;SDS011;46899;47.542;19.082;2024-03-02T09:57:39;24.77;;;17.73;;
61013;SDS011;46899;47.542;19.082;2024-03-02T10:00:52;26.57;;;17.90;;
61013;SDS011;46899;47.542;19.082;2024-03-02T10:04:08;22.73;;;17.75;;
61013;SDS011;46899;47.542;19.082;2024-03-02T10:07:22;21.65;;;16.00;;
61013;SDS011;46899;47.542;19.082;2024-03-02T10:10:40;22.87;;;16.50;;
61013;SDS011;46899;47.542;19.082;2024-03-02T10:14:12;26.15;;;16.62;;
61013;SDS011;46899;47.542;19.082;2024-03-02T10:17:32;22.87;;;16.48;;
61013;SDS011;46899;47.542;19.082;2024-03-02T10:20:44;21.05;;;15.25;;
61013;SDS011;46899;47.542;19.082;2024-03-02T10:24:07;21.02;;;15.77;;
61013;SDS011;46899;47.542;19.082;2024-03-02T10:27:25;21.20;;;15.07;;
61013;SDS011;46899;47.542;19.082;2024-03-02T10:30:47;18.65;;;14.23;;
61013;SDS011;46899;47.542;19.082;2024-03-02T10:34:06;19.73;;;14.10;;
61013;SDS011;46899;47.542;19.082;2024-03-02T10:37:26;17.62;;;13.82;;
61013;SDS011;46899;47.542;19.082;2024-03-02T10:40:38;17.80;;;13.62;;
61013;SDS011;46899;47.542;19.082;2024-03-02T10:43:57;17.33;;;13.50;;
61013;SDS011;46899;47.542;19.082;2024-03-02T10:47:13;17.45;;;13.38;;
61013;SDS011;46899;47.542;19.082;2024-03-02T10:50:30;19.30;;;13.13;;
61013;SDS011;46899;47.542;19.082;2024-03-02T10:53:48;17.83;;;13.40;;
61013;SDS011;46899;47.542;19.082;2024-03-02T10:57:07;16.90;;;12.80;;
61013;SDS011;46899;47.542;19.082;2024-03-02T11:00:21;17.40;;;12.52;;
61013;SDS011;46899;47.542;19.082;2024-03-02T11:03:39;15.20;;;11.82;;
61013;SDS011;46899;47.542;19.082;2024-03-02T11:07:10;15.98;;;12.07;;
61013;SDS011;46899;47.542;19.082;2024-03-02T11:10:36;17.75;;;13.38;;
61013;SDS011;46899;47.542;19.082;2024-03-02T11:13:54;15.60;;;12.05;;
61013;SDS011;46899;47.542;19.082;2024-03-02T11:17:18;14.95;;;11.55;;
61013;SDS011;46899;47.542;19.082;2024-03-02T11:20:38;14.80;;;11.23;;
61013;SDS011;46899;47.542;19.082;2024-03-02T11:23:59;11.93;;;10.05;;
61013;SDS011;46899;47.542;19.082;2024-03-02T11:31:02;13.40;;;9.85;;
61013;SDS011;46899;47.542;19.082;2024-03-02T11:34:28;10.85;;;8.80;;
61013;SDS011;46899;47.542;19.082;2024-03-02T11:37:49;12.43;;;9.25;;
61013;SDS011;46899;47.542;19.082;2024-03-02T11:41:12;11.73;;;9.77;;
61013;SDS011;46899;47.542;19.082;2024-03-02T11:44:28;12.48;;;9.27;;
61013;SDS011;46899;47.542;19.082;2024-03-02T11:47:56;11.52;;;9.60;;
61013;SDS011;46899;47.542;19.082;2024-03-02T11:51:22;12.57;;;10.32;;
61013;SDS011;46899;47.542;19.082;2024-03-02T11:54:36;12.25;;;10.25;;
61013;SDS011;46899;47.542;19.082;2024-03-02T11:57:54;12.23;;;10.20;;
61013;SDS011;46899;47.542;19.082;2024-03-02T12:01:08;14.47;;;10.67;;
61013;SDS011;46899;47.542;19.082;2024-03-02T12:04:26;12.43;;;10.35;;
61013;SDS011;46899;47.542;19.082;2024-03-02T12:07:42;14.03;;;10.67;;
61013;SDS011;46899;47.542;19.082;2024-03-02T12:10:56;12.25;;;9.45;;
61013;SDS011;46899;47.542;19.082;2024-03-02T12:14:14;13.70;;;9.75;;
61013;SDS011;46899;47.542;19.082;2024-03-02T12:17:32;12.55;;;10.15;;
61013;SDS011;46899;47.542;19.082;2024-03-02T12:20:48;12.98;;;10.35;;
61013;SDS011;46899;47.542;19.082;2024-03-02T12:24:02;13.55;;;10.35;;
61013;SDS011;46899;47.542;19.082;2024-03-02T12:27:16;13.48;;;10.77;;
61013;SDS011;46899;47.542;19.082;2024-03-02T12:30:31;12.52;;;10.10;;
61013;SDS011;46899;47.542;19.082;2024-03-02T12:33:44;12.85;;;9.80;;
61013;SDS011;46899;47.542;19.082;2024-03-02T12:37:11;11.73;;;9.45;;
61013;SDS011;46899;47.542;19.082;2024-03-02T12:40:26;12.13;;;10.02;;
61013;SDS011;46899;47.542;19.082;2024-03-02T12:43:43;12.05;;;10.40;;
61013;SDS011;46899;47.542;19.082;2024-03-02T12:46:57;12.00;;;10.13;;
61013;SDS011;46899;47.542;19.082;2024-03-02T12:50:14;12.95;;;10.98;;
61013;SDS011;46899;47.542;19.082;2024-03-02T12:53:29;13.13;;;10.50;;
61013;SDS011;46899;47.542;19.082;2024-03-02T12:56:43;13.43;;;10.73;;
61013;SDS011;46899;47.542;19.082;2024-03-02T13:00:07;14.52;;;11.27;;
61013;SDS011;46899;47.542;19.082;2024-03-02T13:03:36;14.40;;;11.23;;
61013;SDS011;46899;47.542;19.082;2024-03-02T13:06:53;16.33;;;12.75;;
61013;SDS011;46899;47.542;19.082;2024-03-02T13:10:09;15.15;;;12.07;;
61013;SDS011;46899;47.542;19.082;2024-03-02T13:13:26;15.20;;;11.88;;
61013;SDS011;46899;47.542;19.082;2024-03-02T13:16:44;17.62;;;11.88;;
61013;SDS011;46899;47.542;19.082;2024-03-02T13:19:59;15.10;;;11.07;;
61013;SDS011;46899;47.542;19.082;2024-03-02T13:23:16;16.00;;;11.60;;
61013;SDS011;46899;47.542;19.082;2024-03-02T13:26:35;15.68;;;11.55;;
61013;SDS011;46899;47.542;19.082;2024-03-02T13:30:01;16.42;;;11.80;;
61013;SDS011;46899;47.542;19.082;2024-03-02T13:33:21;16.20;;;11.18;;
61013;SDS011;46899;47.542;19.082;2024-03-02T13:36:36;18.33;;;12.50;;
61013;SDS011;46899;47.542;19.082;2024-03-02T13:39:47;19.92;;;12.50;;
61013;SDS011;46899;47.542;19.082;2024-03-02T13:43:03;18.12;;;12.73;;
61013;SDS011;46899;47.542;19.082;2024-03-02T13:46:20;20.27;;;12.73;;
61013;SDS011;46899;47.542;19.082;2024-03-02T13:49:34;19.98;;;12.10;;
61013;SDS011;46899;47.542;19.082;2024-03-02T13:52:49;22.00;;;12.88;;
61013;SDS011;46899;47.542;19.082;2024-03-02T13:56:02;24.37;;;13.70;;
61013;SDS011;46899;47.542;19.082;2024-03-02T13:59:13;20.65;;;12.98;;
61013;SDS011;46899;47.542;19.082;2024-03-02T14:02:27;19.83;;;13.10;;
61013;SDS011;46899;47.542;19.082;2024-03-02T14:05:41;18.87;;;11.95;;
61013;SDS011;46899;47.542;19.082;2024-03-02T14:08:57;19.83;;;11.50;;
61013;SDS011;46899;47.542;19.082;2024-03-02T14:12:14;18.50;;;12.15;;
61013;SDS011;46899;47.542;19.082;2024-03-02T14:15:26;19.12;;;12.63;;
61013;SDS011;46899;47.542;19.082;2024-03-02T14:18:45;19.98;;;12.00;;
61013;SDS011;46899;47.542;19.082;2024-03-02T14:22:02;17.40;;;11.93;;
61013;SDS011;46899;47.542;19.082;2024-03-02T14:25:16;20.95;;;12.90;;
61013;SDS011;46899;47.542;19.082;2024-03-02T14:28:33;23.23;;;14.02;;
61013;SDS011;46899;47.542;19.082;2024-03-02T14:32:00;20.83;;;13.45;;
61013;SDS011;46899;47.542;19.082;2024-03-02T14:35:16;18.95;;;12.20;;
61013;SDS011;46899;47.542;19.082;2024-03-02T14:41:43;19.00;;;11.43;;
61013;SDS011;46899;47.542;19.082;2024-03-02T14:44:59;16.85;;;11.20;;
61013;SDS011;46899;47.542;19.082;2024-03-02T14:48:13;16.52;;;11.32;;
61013;SDS011;46899;47.542;19.082;2024-03-02T14:51:28;16.53;;;10.73;;
61013;SDS011;46899;47.542;19.082;2024-03-02T14:54:39;16.80;;;11.05;;
61013;SDS011;46899;47.542;19.082;2024-03-02T14:57:52;19.12;;;11.55;;
61013;SDS011;46899;47.542;19.082;2024-03-02T15:01:02;19.60;;;11.38;;
61013;SDS011;46899;47.542;19.082;2024-03-02T15:04:24;16.75;;;11.38;;
61013;SDS011;46899;47.542;19.082;2024-03-02T15:07:39;19.13;;;12.07;;
61013;SDS011;46899;47.542;19.082;2024-03-02T15:10:53;18.20;;;12.02;;
61013;SDS011;46899;47.542;19.082;2024-03-02T15:14:10;23.40;;;13.43;;
61013;SDS011;46899;47.542;19.082;2024-03-02T15:17:25;22.60;;;14.27;;
61013;SDS011;46899;47.542;19.082;2024-03-02T15:20:37;22.20;;;14.48;;
61013;SDS011;46899;47.542;19.082;2024-03-02T15:23:51;27.13;;;17.30;;
61013;SDS011;46899;47.542;19.082;2024-03-02T15:27:07;26.12;;;15.82;;
61013;SDS011;46899;47.542;19.082;2024-03-02T15:30:23;34.33;;;19.23;;
61013;SDS011;46899;47.542;19.082;2024-03-02T15:33:41;37.13;;;20.85;;
61013;SDS011;46899;47.542;19.082;2024-03-02T15:37:00;40.90;;;21.33;;
61013;SDS011;46899;47.542;19.082;2024-03-02T15:40:16;35.95;;;21.90;;
61013;SDS011;46899;47.542;19.082;2024-03-02T15:43:34;37.45;;;21.58;;
61013;SDS011;46899;47.542;19.082;2024-03-02T15:46:52;36.25;;;20.25;;
61013;SDS011;46899;47.542;19.082;2024-03-02T15:50:19;36.20;;;21.15;;
61013;SDS011;46899;47.542;19.082;2024-03-02T15:53:40;38.50;;;22.70;;
61013;SDS011;46899;47.542;19.082;2024-03-02T16:00:05;37.78;;;20.88;;
61013;SDS011;46899;47.542;19.082;2024-03-02T16:03:20;36.60;;;21.67;;
61013;SDS011;46899;47.542;19.082;2024-03-02T16:06:31;37.25;;;21.65;;
61013;SDS011;46899;47.542;19.082;2024-03-02T16:09:48;44.83;;;23.53;;
61013;SDS011;46899;47.542;19.082;2024-03-02T16:12:59;38.60;;;22.77;;
61013;SDS011;46899;47.542;19.082;2024-03-02T16:16:11;41.92;;;21.62;;
61013;SDS011;46899;47.542;19.082;2024-03-02T16:19:23;39.00;;;21.65;;
61013;SDS011;46899;47.542;19.082;2024-03-02T16:22:41;36.35;;;21.30;;
61013;SDS011;46899;47.542;19.082;2024-03-02T16:25:53;41.20;;;22.02;;
61013;SDS011;46899;47.542;19.082;2024-03-02T16:29:09;45.42;;;22.33;;
61013;SDS011;46899;47.542;19.082;2024-03-02T16:32:21;43.87;;;21.92;;
61013;SDS011;46899;47.542;19.082;2024-03-02T16:35:35;45.17;;;22.02;;
61013;SDS011;46899;47.542;19.082;2024-03-02T16:38:49;42.80;;;21.65;;
61013;SDS011;46899;47.542;19.082;2024-03-02T16:42:03;42.75;;;22.45;;
61013;SDS011;46899;47.542;19.082;2024-03-02T16:45:15;39.25;;;22.02;;
61013;SDS011;46899;47.542;19.082;2024-03-02T16:48:26;41.78;;;22.20;;
61013;SDS011;46899;47.542;19.082;2024-03-02T16:51:43;38.67;;;22.48;;
61013;SDS011;46899;47.542;19.082;2024-03-02T16:54:58;37.13;;;21.05;;
61013;SDS011;46899;47.542;19.082;2024-03-02T16:58:13;37.55;;;20.75;;
61013;SDS011;46899;47.542;19.082;2024-03-02T17:01:23;37.45;;;19.87;;
61013;SDS011;46899;47.542;19.082;2024-03-02T17:04:40;36.03;;;18.85;;
61013;SDS011;46899;47.542;19.082;2024-03-02T17:07:53;31.75;;;18.95;;
61013;SDS011;46899;47.542;19.082;2024-03-02T17:11:02;31.23;;;18.67;;
61013;SDS011;46899;47.542;19.082;2024-03-02T17:14:13;29.27;;;17.83;;
61013;SDS011;46899;47.542;19.082;2024-03-02T17:17:23;27.05;;;17.58;;
61013;SDS011;46899;47.542;19.082;2024-03-02T17:20:39;27.17;;;17.10;;
61013;SDS011;46899;47.542;19.082;2024-03-02T17:23:53;29.30;;;17.05;;
61013;SDS011;46899;47.542;19.082;2024-03-02T17:27:05;30.00;;;17.02;;
61013;SDS011;46899;47.542;19.082;2024-03-02T17:30:15;25.25;;;17.70;;
61013;SDS011;46899;47.542;19.082;2024-03-02T17:33:28;26.48;;;17.90;;
61013;SDS011;46899;47.542;19.082;2024-03-02T17:36:40;28.52;;;18.73;;
61013;SDS011;46899;47.542;19.082;2024-03-02T17:39:54;28.50;;;18.83;;
61013;SDS011;46899;47.542;19.082;2024-03-02T17:43:06;28.85;;;18.17;;
61013;SDS011;46899;47.542;19.082;2024-03-02T17:46:19;24.58;;;17.10;;
61013;SDS011;46899;47.542;19.082;2024-03-02T17:49:29;24.75;;;16.08;;
61013;SDS011;46899;47.542;19.082;2024-03-02T17:52:43;27.65;;;16.33;;
61013;SDS011;46899;47.542;19.082;2024-03-02T17:55:55;23.27;;;15.32;;
61013;SDS011;46899;47.542;19.082;2024-03-02T17:59:10;24.77;;;16.12;;
61013;SDS011;46899;47.542;19.082;2024-03-02T18:02:21;23.05;;;14.87;;
61013;SDS011;46899;47.542;19.082;2024-03-02T18:05:37;21.30;;;15.55;;
61013;SDS011;46899;47.542;19.082;2024-03-02T18:08:52;22.95;;;16.15;;
61013;SDS011;46899;47.542;19.082;2024-03-02T18:12:02;21.77;;;15.65;;
61013;SDS011;46899;47.542;19.082;2024-03-02T18:15:15;25.10;;;17.27;;
61013;SDS011;46899;47.542;19.082;2024-03-02T18:18:30;28.80;;;18.10;;
61013;SDS011;46899;47.542;19.082;2024-03-02T18:21:42;27.62;;;18.52;;
61013;SDS011;46899;47.542;19.082;2024-03-02T18:24:59;23.40;;;17.10;;
61013;SDS011;46899;47.542;19.082;2024-03-02T18:28:13;28.08;;;18.45;;
61013;SDS011;46899;47.542;19.082;2024-03-02T18:31:32;22.05;;;15.60;;
61013;SDS011;46899;47.542;19.082;2024-03-02T18:34:43;22.37;;;16.17;;
61013;SDS011;46899;47.542;19.082;2024-03-02T18:37:59;19.83;;;15.20;;
61013;SDS011;46899;47.542;19.082;2024-03-02T18:41:13;22.62;;;14.60;;
61013;SDS011;46899;47.542;19.082;2024-03-02T18:44:30;21.45;;;13.43;;
61013;SDS011;46899;47.542;19.082;2024-03-02T18:47:45;19.00;;;14.13;;
61013;SDS011;46899;47.542;19.082;2024-03-02T18:50:56;21.75;;;13.68;;
61013;SDS011;46899;47.542;19.082;2024-03-02T18:54:12;18.05;;;13.90;;
61013;SDS011;46899;47.542;19.082;2024-03-02T18:57:24;18.87;;;13.13;;
61013;SDS011;46899;47.542;19.082;2024-03-02T19:00:37;20.70;;;13.95;;
61013;SDS011;46899;47.542;19.082;2024-03-02T19:03:47;18.02;;;13.02;;
61013;SDS011;46899;47.542;19.082;2024-03-02T19:07:04;20.15;;;13.45;;
61013;SDS011;46899;47.542;19.082;2024-03-02T19:10:18;21.77;;;13.68;;
61013;SDS011;46899;47.542;19.082;2024-03-02T19:13:31;19.12;;;13.25;;
61013;SDS011;46899;47.542;19.082;2024-03-02T19:16:46;19.62;;;13.43;;